sensor_id;sensor_type;location;lat;lon;timestamp;P1;durP1;ratioP1;P2;durP2;ratioP2
13102;SDS011;52970;46.752;17.108;2022-11-14T00:00:36;32.08;;;24.77;;
13102;SDS011;52970;46.752;17.108;2022-11-14T00:03:03;34.00;;;24.48;;
13102;SDS011;52970;46.752;17.108;2022-11-14T00:05:29;28.58;;;22.77;;
13102;SDS011;52970;46.752;17.108;2022-11-14T00:07:54;32.67;;;24.65;;
13102;SDS011;52970;46.752;17.108;2022-11-14T00:10:20;31.95;;;23.80;;
13102;SDS011;52970;46.752;17.108;2022-11-14T00:12:45;30.00;;;23.10;;
13102;SDS011;52970;46.752;17.108;2022-11-14T00:15:11;36.05;;;24.90;;
13102;SDS011;52970;46.752;17.108;2022-11-14T00:17:36;31.20;;;23.73;;
13102;SDS011;52970;46.752;17.108;2022-11-14T00:20:02;31.17;;;23.27;;
13102;SDS011;52970;46.752;17.108;2022-11-14T00:22:27;30.92;;;23.52;;
13102;SDS011;52970;46.752;17.108;2022-11-14T00:24:52;33.75;;;24.52;;
13102;SDS011;52970;46.752;17.108;2022-11-14T00:27:17;32.05;;;24.40;;
13102;SDS011;52970;46.752;17.108;2022-11-14T00:29:43;33.65;;;23.63;;
13102;SDS011;52970;46.752;17.108;2022-11-14T00:32:08;33.00;;;24.05;;
13102;SDS011;52970;46.752;17.108;2022-11-14T00:34:33;34.38;;;24.30;;
13102;SDS011;52970;46.752;17.108;2022-11-14T00:36:59;34.22;;;24.33;;
13102;SDS011;52970;46.752;17.108;2022-11-14T00:39:24;34.15;;;25.17;;
13102;SDS011;52970;46.752;17.108;2022-11-14T00:41:50;31.05;;;22.63;;
13102;SDS011;52970;46.752;17.108;2022-11-14T00:44:15;32.42;;;23.73;;
13102;SDS011;52970;46.752;17.108;2022-11-14T00:46:40;31.00;;;24.85;;
13102;SDS011;52970;46.752;17.108;2022-11-14T00:49:05;32.28;;;22.63;;
13102;SDS011;52970;46.752;17.108;2022-11-14T00:51:31;33.42;;;25.60;;
13102;SDS011;52970;46.752;17.108;2022-11-14T00:53:56;31.40;;;24.13;;
13102;SDS011;52970;46.752;17.108;2022-11-14T00:56:21;33.10;;;25.08;;
13102;SDS011;52970;46.752;17.108;2022-11-14T00:58:46;31.20;;;23.80;;
13102;SDS011;52970;46.752;17.108;2022-11-14T01:01:12;33.58;;;24.70;;
13102;SDS011;52970;46.752;17.108;2022-11-14T01:03:37;31.40;;;22.60;;
13102;SDS011;52970;46.752;17.108;2022-11-14T01:06:03;30.73;;;22.65;;
13102;SDS011;52970;46.752;17.108;2022-11-14T01:08:29;27.02;;;21.45;;
13102;SDS011;52970;46.752;17.108;2022-11-14T01:10:54;30.40;;;23.42;;
13102;SDS011;52970;46.752;17.108;2022-11-14T01:13:19;32.30;;;23.13;;
13102;SDS011;52970;46.752;17.108;2022-11-14T01:15:46;33.90;;;23.70;;
13102;SDS011;52970;46.752;17.108;2022-11-14T01:18:13;31.67;;;24.33;;
13102;SDS011;52970;46.752;17.108;2022-11-14T01:20:39;31.50;;;21.80;;
13102;SDS011;52970;46.752;17.108;2022-11-14T01:23:05;31.05;;;23.98;;
13102;SDS011;52970;46.752;17.108;2022-11-14T01:25:31;29.20;;;22.52;;
13102;SDS011;52970;46.752;17.108;2022-11-14T01:27:57;31.38;;;23.73;;
13102;SDS011;52970;46.752;17.108;2022-11-14T01:30:22;29.90;;;23.00;;
13102;SDS011;52970;46.752;17.108;2022-11-14T01:32:47;30.15;;;22.70;;
13102;SDS011;52970;46.752;17.108;2022-11-14T01:35:12;29.90;;;23.58;;
13102;SDS011;52970;46.752;17.108;2022-11-14T01:37:38;32.80;;;24.03;;
13102;SDS011;52970;46.752;17.108;2022-11-14T01:40:03;30.45;;;23.67;;
13102;SDS011;52970;46.752;17.108;2022-11-14T01:42:28;32.60;;;25.42;;
13102;SDS011;52970;46.752;17.108;2022-11-14T01:44:53;31.47;;;23.67;;
13102;SDS011;52970;46.752;17.108;2022-11-14T01:47:20;30.23;;;23.05;;
13102;SDS011;52970;46.752;17.108;2022-11-14T01:49:46;29.90;;;22.40;;
13102;SDS011;52970;46.752;17.108;2022-11-14T01:54:47;40.03;;;27.92;;
13102;SDS011;52970;46.752;17.108;2022-11-14T01:57:14;45.92;;;30.17;;
13102;SDS011;52970;46.752;17.108;2022-11-14T01:59:41;43.05;;;29.63;;
13102;SDS011;52970;46.752;17.108;2022-11-14T02:02:18;37.38;;;26.00;;
13102;SDS011;52970;46.752;17.108;2022-11-14T02:04:47;40.45;;;27.83;;
13102;SDS011;52970;46.752;17.108;2022-11-14T02:07:14;36.45;;;25.08;;
13102;SDS011;52970;46.752;17.108;2022-11-14T02:09:41;35.08;;;25.02;;
13102;SDS011;52970;46.752;17.108;2022-11-14T02:12:07;35.78;;;24.83;;
13102;SDS011;52970;46.752;17.108;2022-11-14T02:14:34;40.22;;;25.92;;
13102;SDS011;52970;46.752;17.108;2022-11-14T02:17:00;34.30;;;23.77;;
13102;SDS011;52970;46.752;17.108;2022-11-14T02:19:28;35.35;;;25.45;;
13102;SDS011;52970;46.752;17.108;2022-11-14T02:22:03;31.60;;;23.15;;
13102;SDS011;52970;46.752;17.108;2022-11-14T02:24:28;31.88;;;22.90;;
13102;SDS011;52970;46.752;17.108;2022-11-14T02:26:54;30.88;;;23.20;;
13102;SDS011;52970;46.752;17.108;2022-11-14T02:29:19;35.83;;;24.38;;
13102;SDS011;52970;46.752;17.108;2022-11-14T02:31:44;32.05;;;23.90;;
13102;SDS011;52970;46.752;17.108;2022-11-14T02:34:10;32.78;;;23.67;;
13102;SDS011;52970;46.752;17.108;2022-11-14T02:36:35;36.47;;;25.83;;
13102;SDS011;52970;46.752;17.108;2022-11-14T02:39:00;35.47;;;24.75;;
13102;SDS011;52970;46.752;17.108;2022-11-14T02:41:25;36.05;;;24.55;;
13102;SDS011;52970;46.752;17.108;2022-11-14T02:43:51;37.03;;;25.52;;
13102;SDS011;52970;46.752;17.108;2022-11-14T02:46:16;35.97;;;24.80;;
13102;SDS011;52970;46.752;17.108;2022-11-14T02:48:41;36.28;;;25.40;;
13102;SDS011;52970;46.752;17.108;2022-11-14T02:51:06;33.20;;;24.00;;
13102;SDS011;52970;46.752;17.108;2022-11-14T02:53:31;35.90;;;23.75;;
13102;SDS011;52970;46.752;17.108;2022-11-14T02:55:57;36.63;;;24.48;;
13102;SDS011;52970;46.752;17.108;2022-11-14T02:58:22;31.38;;;22.35;;
13102;SDS011;52970;46.752;17.108;2022-11-14T03:00:47;35.05;;;24.25;;
13102;SDS011;52970;46.752;17.108;2022-11-14T03:03:12;35.10;;;24.20;;
13102;SDS011;52970;46.752;17.108;2022-11-14T03:05:37;31.17;;;22.65;;
13102;SDS011;52970;46.752;17.108;2022-11-14T03:08:03;37.90;;;25.15;;
13102;SDS011;52970;46.752;17.108;2022-11-14T03:10:28;33.20;;;24.50;;
13102;SDS011;52970;46.752;17.108;2022-11-14T03:12:54;32.00;;;23.33;;
13102;SDS011;52970;46.752;17.108;2022-11-14T03:15:19;33.25;;;23.52;;
13102;SDS011;52970;46.752;17.108;2022-11-14T03:17:44;33.17;;;23.20;;
13102;SDS011;52970;46.752;17.108;2022-11-14T03:20:10;37.13;;;25.50;;
13102;SDS011;52970;46.752;17.108;2022-11-14T03:22:35;35.22;;;24.70;;
13102;SDS011;52970;46.752;17.108;2022-11-14T03:25:00;37.63;;;25.55;;
13102;SDS011;52970;46.752;17.108;2022-11-14T03:27:25;38.72;;;24.98;;
13102;SDS011;52970;46.752;17.108;2022-11-14T03:29:51;40.38;;;25.75;;
13102;SDS011;52970;46.752;17.108;2022-11-14T03:32:16;36.97;;;25.75;;
13102;SDS011;52970;46.752;17.108;2022-11-14T03:34:41;33.47;;;22.45;;
13102;SDS011;52970;46.752;17.108;2022-11-14T03:37:07;38.72;;;24.35;;
13102;SDS011;52970;46.752;17.108;2022-11-14T03:39:32;30.60;;;22.52;;
13102;SDS011;52970;46.752;17.108;2022-11-14T03:41:57;30.55;;;21.77;;
13102;SDS011;52970;46.752;17.108;2022-11-14T03:44:22;30.70;;;21.95;;
13102;SDS011;52970;46.752;17.108;2022-11-14T03:46:48;40.97;;;25.33;;
13102;SDS011;52970;46.752;17.108;2022-11-14T03:49:13;39.38;;;25.45;;
13102;SDS011;52970;46.752;17.108;2022-11-14T03:51:38;34.40;;;24.00;;
13102;SDS011;52970;46.752;17.108;2022-11-14T03:54:03;37.30;;;25.33;;
13102;SDS011;52970;46.752;17.108;2022-11-14T03:56:28;40.60;;;26.00;;
13102;SDS011;52970;46.752;17.108;2022-11-14T03:58:54;36.72;;;24.65;;
13102;SDS011;52970;46.752;17.108;2022-11-14T04:01:19;34.15;;;23.95;;
13102;SDS011;52970;46.752;17.108;2022-11-14T04:03:44;33.40;;;22.70;;
13102;SDS011;52970;46.752;17.108;2022-11-14T04:06:10;35.85;;;24.13;;
13102;SDS011;52970;46.752;17.108;2022-11-14T04:08:35;37.72;;;27.00;;
13102;SDS011;52970;46.752;17.108;2022-11-14T04:11:00;35.65;;;24.33;;
13102;SDS011;52970;46.752;17.108;2022-11-14T04:13:25;41.20;;;26.55;;
13102;SDS011;52970;46.752;17.108;2022-11-14T04:15:54;43.72;;;27.30;;
13102;SDS011;52970;46.752;17.108;2022-11-14T04:18:20;36.45;;;24.00;;
13102;SDS011;52970;46.752;17.108;2022-11-14T04:20:45;39.72;;;26.00;;
13102;SDS011;52970;46.752;17.108;2022-11-14T04:23:10;41.88;;;27.20;;
13102;SDS011;52970;46.752;17.108;2022-11-14T04:25:36;42.22;;;26.27;;
13102;SDS011;52970;46.752;17.108;2022-11-14T04:28:01;42.67;;;27.63;;
13102;SDS011;52970;46.752;17.108;2022-11-14T04:30:26;42.22;;;26.67;;
13102;SDS011;52970;46.752;17.108;2022-11-14T04:32:51;37.28;;;24.60;;
13102;SDS011;52970;46.752;17.108;2022-11-14T04:35:17;37.90;;;24.98;;
13102;SDS011;52970;46.752;17.108;2022-11-14T04:37:42;36.17;;;24.33;;
13102;SDS011;52970;46.752;17.108;2022-11-14T04:40:08;37.17;;;24.30;;
13102;SDS011;52970;46.752;17.108;2022-11-14T04:42:33;40.03;;;24.65;;
13102;SDS011;52970;46.752;17.108;2022-11-14T04:44:58;39.67;;;25.42;;
13102;SDS011;52970;46.752;17.108;2022-11-14T04:47:24;37.45;;;24.95;;
13102;SDS011;52970;46.752;17.108;2022-11-14T04:49:49;36.38;;;25.75;;
13102;SDS011;52970;46.752;17.108;2022-11-14T04:52:14;39.60;;;24.98;;
13102;SDS011;52970;46.752;17.108;2022-11-14T04:54:39;43.08;;;26.63;;
13102;SDS011;52970;46.752;17.108;2022-11-14T04:57:04;38.47;;;25.20;;
13102;SDS011;52970;46.752;17.108;2022-11-14T04:59:30;40.03;;;26.48;;
13102;SDS011;52970;46.752;17.108;2022-11-14T05:01:55;44.08;;;27.55;;
13102;SDS011;52970;46.752;17.108;2022-11-14T05:04:20;37.50;;;24.38;;
13102;SDS011;52970;46.752;17.108;2022-11-14T05:06:45;42.42;;;26.80;;
13102;SDS011;52970;46.752;17.108;2022-11-14T05:09:11;37.83;;;24.92;;
13102;SDS011;52970;46.752;17.108;2022-11-14T05:11:36;38.90;;;24.80;;
13102;SDS011;52970;46.752;17.108;2022-11-14T05:14:01;39.22;;;25.42;;
13102;SDS011;52970;46.752;17.108;2022-11-14T05:16:26;36.05;;;24.40;;
13102;SDS011;52970;46.752;17.108;2022-11-14T05:18:53;39.33;;;25.45;;
13102;SDS011;52970;46.752;17.108;2022-11-14T05:21:18;36.22;;;24.00;;
13102;SDS011;52970;46.752;17.108;2022-11-14T05:23:44;34.47;;;23.60;;
13102;SDS011;52970;46.752;17.108;2022-11-14T05:26:10;35.47;;;23.30;;
13102;SDS011;52970;46.752;17.108;2022-11-14T05:28:36;29.00;;;21.75;;
13102;SDS011;52970;46.752;17.108;2022-11-14T05:31:08;30.02;;;20.83;;
13102;SDS011;52970;46.752;17.108;2022-11-14T05:33:34;32.70;;;22.52;;
13102;SDS011;52970;46.752;17.108;2022-11-14T05:36:03;32.92;;;22.25;;
13102;SDS011;52970;46.752;17.108;2022-11-14T05:38:29;38.95;;;25.48;;
13102;SDS011;52970;46.752;17.108;2022-11-14T05:40:54;35.20;;;24.50;;
13102;SDS011;52970;46.752;17.108;2022-11-14T05:43:19;34.10;;;23.02;;
13102;SDS011;52970;46.752;17.108;2022-11-14T05:45:44;33.67;;;22.63;;
13102;SDS011;52970;46.752;17.108;2022-11-14T05:48:09;33.63;;;21.48;;
13102;SDS011;52970;46.752;17.108;2022-11-14T05:50:35;33.47;;;22.60;;
13102;SDS011;52970;46.752;17.108;2022-11-14T05:53:00;34.92;;;23.20;;
13102;SDS011;52970;46.752;17.108;2022-11-14T05:55:25;35.58;;;25.15;;
13102;SDS011;52970;46.752;17.108;2022-11-14T05:57:50;32.15;;;22.50;;
13102;SDS011;52970;46.752;17.108;2022-11-14T06:00:16;34.55;;;22.95;;
13102;SDS011;52970;46.752;17.108;2022-11-14T06:02:41;32.58;;;21.42;;
13102;SDS011;52970;46.752;17.108;2022-11-14T06:05:06;29.60;;;21.42;;
13102;SDS011;52970;46.752;17.108;2022-11-14T06:07:31;30.05;;;20.80;;
13102;SDS011;52970;46.752;17.108;2022-11-14T06:09:57;35.83;;;23.15;;
13102;SDS011;52970;46.752;17.108;2022-11-14T06:12:24;30.63;;;21.63;;
13102;SDS011;52970;46.752;17.108;2022-11-14T06:14:49;30.05;;;20.67;;
13102;SDS011;52970;46.752;17.108;2022-11-14T06:17:14;33.45;;;21.10;;
13102;SDS011;52970;46.752;17.108;2022-11-14T06:19:40;29.48;;;20.08;;
13102;SDS011;52970;46.752;17.108;2022-11-14T06:22:05;34.80;;;21.33;;
13102;SDS011;52970;46.752;17.108;2022-11-14T06:24:30;27.58;;;19.48;;
13102;SDS011;52970;46.752;17.108;2022-11-14T06:26:55;33.75;;;20.63;;
13102;SDS011;52970;46.752;17.108;2022-11-14T06:29:20;28.58;;;19.38;;
13102;SDS011;52970;46.752;17.108;2022-11-14T06:31:46;26.42;;;19.55;;
13102;SDS011;52970;46.752;17.108;2022-11-14T06:34:11;34.00;;;22.50;;
13102;SDS011;52970;46.752;17.108;2022-11-14T06:36:37;25.20;;;18.42;;
13102;SDS011;52970;46.752;17.108;2022-11-14T06:39:02;38.30;;;20.70;;
13102;SDS011;52970;46.752;17.108;2022-11-14T06:41:27;48.78;;;18.88;;
13102;SDS011;52970;46.752;17.108;2022-11-14T06:43:52;29.58;;;18.23;;
13102;SDS011;52970;46.752;17.108;2022-11-14T06:46:19;25.08;;;18.60;;
13102;SDS011;52970;46.752;17.108;2022-11-14T06:48:45;26.95;;;16.92;;
13102;SDS011;52970;46.752;17.108;2022-11-14T06:51:11;34.55;;;17.92;;
13102;SDS011;52970;46.752;17.108;2022-11-14T06:53:36;28.75;;;18.48;;
13102;SDS011;52970;46.752;17.108;2022-11-14T06:56:23;24.17;;;17.52;;
13102;SDS011;52970;46.752;17.108;2022-11-14T06:58:47;29.17;;;18.48;;
13102;SDS011;52970;46.752;17.108;2022-11-14T07:01:14;23.77;;;17.80;;
13102;SDS011;52970;46.752;17.108;2022-11-14T07:03:40;22.90;;;17.13;;
13102;SDS011;52970;46.752;17.108;2022-11-14T07:06:06;38.25;;;18.55;;
13102;SDS011;52970;46.752;17.108;2022-11-14T07:08:31;24.17;;;18.30;;
13102;SDS011;52970;46.752;17.108;2022-11-14T07:11:16;47.15;;;23.77;;
13102;SDS011;52970;46.752;17.108;2022-11-14T07:14:01;29.33;;;20.67;;
13102;SDS011;52970;46.752;17.108;2022-11-14T07:16:28;27.15;;;18.13;;
13102;SDS011;52970;46.752;17.108;2022-11-14T07:18:54;24.58;;;17.60;;
13102;SDS011;52970;46.752;17.108;2022-11-14T07:21:20;21.70;;;17.17;;
13102;SDS011;52970;46.752;17.108;2022-11-14T07:23:45;25.42;;;17.42;;
13102;SDS011;52970;46.752;17.108;2022-11-14T07:26:10;19.75;;;15.65;;
13102;SDS011;52970;46.752;17.108;2022-11-14T07:28:37;27.10;;;17.23;;
13102;SDS011;52970;46.752;17.108;2022-11-14T07:31:03;24.40;;;16.33;;
13102;SDS011;52970;46.752;17.108;2022-11-14T07:33:29;21.30;;;16.52;;
13102;SDS011;52970;46.752;17.108;2022-11-14T07:35:54;24.15;;;16.20;;
13102;SDS011;52970;46.752;17.108;2022-11-14T07:38:19;20.50;;;16.20;;
13102;SDS011;52970;46.752;17.108;2022-11-14T07:40:58;22.75;;;15.80;;
13102;SDS011;52970;46.752;17.108;2022-11-14T07:43:23;22.30;;;16.52;;
13102;SDS011;52970;46.752;17.108;2022-11-14T07:45:49;24.95;;;17.00;;
13102;SDS011;52970;46.752;17.108;2022-11-14T07:48:14;24.33;;;16.40;;
13102;SDS011;52970;46.752;17.108;2022-11-14T07:50:40;27.63;;;16.88;;
13102;SDS011;52970;46.752;17.108;2022-11-14T07:53:05;20.95;;;15.57;;
13102;SDS011;52970;46.752;17.108;2022-11-14T07:55:31;22.48;;;16.42;;
13102;SDS011;52970;46.752;17.108;2022-11-14T07:57:59;24.65;;;16.90;;
13102;SDS011;52970;46.752;17.108;2022-11-14T08:00:25;53.30;;;17.95;;
13102;SDS011;52970;46.752;17.108;2022-11-14T08:02:50;22.13;;;16.85;;
13102;SDS011;52970;46.752;17.108;2022-11-14T08:05:16;25.27;;;16.20;;
13102;SDS011;52970;46.752;17.108;2022-11-14T08:07:41;24.15;;;14.98;;
13102;SDS011;52970;46.752;17.108;2022-11-14T08:10:07;23.20;;;16.88;;
13102;SDS011;52970;46.752;17.108;2022-11-14T08:12:32;21.42;;;15.48;;
13102;SDS011;52970;46.752;17.108;2022-11-14T08:14:57;18.40;;;14.00;;
13102;SDS011;52970;46.752;17.108;2022-11-14T08:17:22;21.23;;;15.68;;
13102;SDS011;52970;46.752;17.108;2022-11-14T08:19:48;23.70;;;16.85;;
13102;SDS011;52970;46.752;17.108;2022-11-14T08:22:13;20.13;;;15.38;;
13102;SDS011;52970;46.752;17.108;2022-11-14T08:24:38;29.05;;;16.90;;
13102;SDS011;52970;46.752;17.108;2022-11-14T08:27:03;34.42;;;16.92;;
13102;SDS011;52970;46.752;17.108;2022-11-14T08:29:29;58.45;;;18.02;;
13102;SDS011;52970;46.752;17.108;2022-11-14T08:31:54;23.98;;;16.40;;
13102;SDS011;52970;46.752;17.108;2022-11-14T08:34:19;25.50;;;17.55;;
13102;SDS011;52970;46.752;17.108;2022-11-14T08:36:46;22.88;;;17.33;;
13102;SDS011;52970;46.752;17.108;2022-11-14T08:39:11;27.48;;;18.40;;
13102;SDS011;52970;46.752;17.108;2022-11-14T08:41:37;22.55;;;16.63;;
13102;SDS011;52970;46.752;17.108;2022-11-14T08:44:02;23.65;;;17.50;;
13102;SDS011;52970;46.752;17.108;2022-11-14T08:46:27;26.25;;;18.33;;
13102;SDS011;52970;46.752;17.108;2022-11-14T08:48:52;28.52;;;19.33;;
13102;SDS011;52970;46.752;17.108;2022-11-14T08:51:17;28.63;;;19.33;;
13102;SDS011;52970;46.752;17.108;2022-11-14T08:53:43;29.85;;;19.80;;
13102;SDS011;52970;46.752;17.108;2022-11-14T08:56:09;28.58;;;19.58;;
13102;SDS011;52970;46.752;17.108;2022-11-14T08:58:34;29.60;;;19.75;;
13102;SDS011;52970;46.752;17.108;2022-11-14T09:01:03;31.00;;;22.95;;
13102;SDS011;52970;46.752;17.108;2022-11-14T09:03:29;31.45;;;21.75;;
13102;SDS011;52970;46.752;17.108;2022-11-14T09:05:54;29.52;;;19.95;;
13102;SDS011;52970;46.752;17.108;2022-11-14T09:08:20;30.58;;;22.13;;
13102;SDS011;52970;46.752;17.108;2022-11-14T09:10:45;37.47;;;24.00;;
13102;SDS011;52970;46.752;17.108;2022-11-14T09:13:11;63.08;;;35.75;;
13102;SDS011;52970;46.752;17.108;2022-11-14T09:15:36;83.43;;;48.13;;
13102;SDS011;52970;46.752;17.108;2022-11-14T09:18:02;61.20;;;36.63;;
13102;SDS011;52970;46.752;17.108;2022-11-14T09:20:27;41.50;;;25.50;;
13102;SDS011;52970;46.752;17.108;2022-11-14T09:22:56;49.92;;;32.00;;
13102;SDS011;52970;46.752;17.108;2022-11-14T09:25:21;38.60;;;25.70;;
13102;SDS011;52970;46.752;17.108;2022-11-14T09:27:47;36.22;;;23.95;;
13102;SDS011;52970;46.752;17.108;2022-11-14T09:30:12;34.30;;;21.45;;
13102;SDS011;52970;46.752;17.108;2022-11-14T09:32:38;39.03;;;21.67;;
13102;SDS011;52970;46.752;17.108;2022-11-14T09:35:03;30.05;;;19.58;;
13102;SDS011;52970;46.752;17.108;2022-11-14T09:37:29;30.60;;;20.63;;
13102;SDS011;52970;46.752;17.108;2022-11-14T09:39:54;32.38;;;20.48;;
13102;SDS011;52970;46.752;17.108;2022-11-14T09:47:14;29.13;;;19.58;;
13102;SDS011;52970;46.752;17.108;2022-11-14T09:49:44;34.97;;;19.98;;
13102;SDS011;52970;46.752;17.108;2022-11-14T09:54:51;34.33;;;18.88;;
13102;SDS011;52970;46.752;17.108;2022-11-14T09:57:18;32.30;;;20.88;;
13102;SDS011;52970;46.752;17.108;2022-11-14T09:59:44;31.42;;;19.50;;
13102;SDS011;52970;46.752;17.108;2022-11-14T10:04:58;32.97;;;19.95;;
13102;SDS011;52970;46.752;17.108;2022-11-14T10:07:43;31.50;;;21.25;;
13102;SDS011;52970;46.752;17.108;2022-11-14T10:15:36;30.48;;;20.27;;
13102;SDS011;52970;46.752;17.108;2022-11-14T10:18:07;29.95;;;19.65;;
13102;SDS011;52970;46.752;17.108;2022-11-14T10:20:38;31.10;;;19.27;;
13102;SDS011;52970;46.752;17.108;2022-11-14T10:23:21;28.13;;;18.85;;
13102;SDS011;52970;46.752;17.108;2022-11-14T10:25:55;27.40;;;18.48;;
13102;SDS011;52970;46.752;17.108;2022-11-14T10:28:32;28.75;;;18.85;;
13102;SDS011;52970;46.752;17.108;2022-11-14T10:33:31;28.67;;;19.50;;
13102;SDS011;52970;46.752;17.108;2022-11-14T10:38:52;28.63;;;18.92;;
13102;SDS011;52970;46.752;17.108;2022-11-14T10:41:19;29.80;;;18.83;;
13102;SDS011;52970;46.752;17.108;2022-11-14T10:43:46;31.67;;;20.75;;
13102;SDS011;52970;46.752;17.108;2022-11-14T10:48:47;29.90;;;19.52;;
13102;SDS011;52970;46.752;17.108;2022-11-14T10:53:54;30.27;;;20.25;;
13102;SDS011;52970;46.752;17.108;2022-11-14T10:56:21;30.77;;;20.73;;
13102;SDS011;52970;46.752;17.108;2022-11-14T10:58:46;31.90;;;21.13;;
13102;SDS011;52970;46.752;17.108;2022-11-14T11:03:55;33.03;;;20.67;;
13102;SDS011;52970;46.752;17.108;2022-11-14T11:06:24;28.13;;;19.10;;
13102;SDS011;52970;46.752;17.108;2022-11-14T11:08:50;30.50;;;20.25;;
13102;SDS011;52970;46.752;17.108;2022-11-14T11:11:35;32.90;;;21.35;;
13102;SDS011;52970;46.752;17.108;2022-11-14T11:14:01;32.13;;;20.20;;
13102;SDS011;52970;46.752;17.108;2022-11-14T11:16:27;28.60;;;19.77;;
13102;SDS011;52970;46.752;17.108;2022-11-14T11:18:53;32.03;;;21.08;;
13102;SDS011;52970;46.752;17.108;2022-11-14T11:21:55;32.80;;;20.67;;
13102;SDS011;52970;46.752;17.108;2022-11-14T11:24:33;30.45;;;21.27;;
13102;SDS011;52970;46.752;17.108;2022-11-14T11:29:44;30.13;;;20.33;;
13102;SDS011;52970;46.752;17.108;2022-11-14T11:32:09;29.88;;;19.60;;
13102;SDS011;52970;46.752;17.108;2022-11-14T11:34:35;32.38;;;21.02;;
13102;SDS011;52970;46.752;17.108;2022-11-14T11:39:27;28.77;;;19.35;;
13102;SDS011;52970;46.752;17.108;2022-11-14T11:41:53;30.35;;;20.30;;
13102;SDS011;52970;46.752;17.108;2022-11-14T11:44:19;34.83;;;22.25;;
13102;SDS011;52970;46.752;17.108;2022-11-14T11:46:58;29.35;;;19.52;;
13102;SDS011;52970;46.752;17.108;2022-11-14T11:52:01;34.00;;;21.40;;
13102;SDS011;52970;46.752;17.108;2022-11-14T11:55:12;32.63;;;21.10;;
13102;SDS011;52970;46.752;17.108;2022-11-14T11:57:16;31.40;;;21.00;;
13102;SDS011;52970;46.752;17.108;2022-11-14T11:59:44;32.13;;;21.52;;
13102;SDS011;52970;46.752;17.108;2022-11-14T12:02:21;33.47;;;21.17;;
13102;SDS011;52970;46.752;17.108;2022-11-14T12:04:47;34.50;;;22.38;;
13102;SDS011;52970;46.752;17.108;2022-11-14T12:07:14;28.65;;;19.90;;
13102;SDS011;52970;46.752;17.108;2022-11-14T12:09:41;33.10;;;21.40;;
13102;SDS011;52970;46.752;17.108;2022-11-14T12:12:20;30.20;;;21.60;;
13102;SDS011;52970;46.752;17.108;2022-11-14T12:20:01;30.90;;;20.48;;
13102;SDS011;52970;46.752;17.108;2022-11-14T12:30:23;34.38;;;22.60;;
13102;SDS011;52970;46.752;17.108;2022-11-14T12:33:08;32.03;;;21.02;;
13102;SDS011;52970;46.752;17.108;2022-11-14T12:35:35;30.08;;;19.83;;
13102;SDS011;52970;46.752;17.108;2022-11-14T12:38:04;31.75;;;21.17;;
13102;SDS011;52970;46.752;17.108;2022-11-14T12:40:37;34.88;;;21.65;;
13102;SDS011;52970;46.752;17.108;2022-11-14T12:43:03;33.75;;;22.33;;
13102;SDS011;52970;46.752;17.108;2022-11-14T12:50:48;35.25;;;21.63;;
13102;SDS011;52970;46.752;17.108;2022-11-14T12:53:36;33.45;;;21.67;;
13102;SDS011;52970;46.752;17.108;2022-11-14T13:06:04;36.00;;;23.80;;
13102;SDS011;52970;46.752;17.108;2022-11-14T13:10:56;39.38;;;24.83;;
13102;SDS011;52970;46.752;17.108;2022-11-14T13:13:22;40.53;;;25.13;;
13102;SDS011;52970;46.752;17.108;2022-11-14T13:16:20;32.17;;;22.17;;
13102;SDS011;52970;46.752;17.108;2022-11-14T13:19:15;34.42;;;22.60;;
13102;SDS011;52970;46.752;17.108;2022-11-14T13:27:22;34.65;;;23.02;;
13102;SDS011;52970;46.752;17.108;2022-11-14T13:29:48;33.95;;;23.13;;
13102;SDS011;52970;46.752;17.108;2022-11-14T13:32:31;33.60;;;22.98;;
13102;SDS011;52970;46.752;17.108;2022-11-14T13:34:59;32.83;;;21.77;;
13102;SDS011;52970;46.752;17.108;2022-11-14T13:45:14;31.70;;;21.88;;
13102;SDS011;52970;46.752;17.108;2022-11-14T13:50:29;34.90;;;23.60;;
13102;SDS011;52970;46.752;17.108;2022-11-14T13:52:55;34.80;;;23.80;;
13102;SDS011;52970;46.752;17.108;2022-11-14T13:56:04;35.88;;;22.67;;
13102;SDS011;52970;46.752;17.108;2022-11-14T13:58:30;35.17;;;22.80;;
13102;SDS011;52970;46.752;17.108;2022-11-14T14:01:07;33.95;;;23.67;;
13102;SDS011;52970;46.752;17.108;2022-11-14T14:03:43;33.80;;;22.05;;
13102;SDS011;52970;46.752;17.108;2022-11-14T14:06:27;33.05;;;22.20;;
13102;SDS011;52970;46.752;17.108;2022-11-14T14:14:12;39.83;;;25.40;;
13102;SDS011;52970;46.752;17.108;2022-11-14T14:16:47;33.92;;;23.63;;
13102;SDS011;52970;46.752;17.108;2022-11-14T14:19:19;38.83;;;24.73;;
13102;SDS011;52970;46.752;17.108;2022-11-14T14:27:24;35.58;;;24.00;;
13102;SDS011;52970;46.752;17.108;2022-11-14T14:32:17;33.25;;;23.25;;
13102;SDS011;52970;46.752;17.108;2022-11-14T14:34:43;32.42;;;21.73;;
13102;SDS011;52970;46.752;17.108;2022-11-14T14:37:16;34.67;;;23.55;;
13102;SDS011;52970;46.752;17.108;2022-11-14T14:39:42;34.67;;;23.67;;
13102;SDS011;52970;46.752;17.108;2022-11-14T14:42:18;34.60;;;22.25;;
13102;SDS011;52970;46.752;17.108;2022-11-14T14:44:45;35.80;;;24.17;;
13102;SDS011;52970;46.752;17.108;2022-11-14T14:47:17;34.78;;;22.58;;
13102;SDS011;52970;46.752;17.108;2022-11-14T14:49:50;41.70;;;26.45;;
13102;SDS011;52970;46.752;17.108;2022-11-14T14:54:53;36.90;;;25.15;;
13102;SDS011;52970;46.752;17.108;2022-11-14T14:57:19;38.30;;;25.63;;
13102;SDS011;52970;46.752;17.108;2022-11-14T14:59:44;41.90;;;27.13;;
13102;SDS011;52970;46.752;17.108;2022-11-14T15:02:14;41.05;;;26.77;;
13102;SDS011;52970;46.752;17.108;2022-11-14T15:04:40;40.38;;;26.40;;
13102;SDS011;52970;46.752;17.108;2022-11-14T15:07:14;44.25;;;28.35;;
13102;SDS011;52970;46.752;17.108;2022-11-14T15:09:55;44.78;;;27.88;;
13102;SDS011;52970;46.752;17.108;2022-11-14T15:12:22;40.00;;;25.77;;
13102;SDS011;52970;46.752;17.108;2022-11-14T15:14:48;39.63;;;25.25;;
13102;SDS011;52970;46.752;17.108;2022-11-14T15:17:14;41.22;;;26.88;;
13102;SDS011;52970;46.752;17.108;2022-11-14T15:19:40;39.88;;;26.73;;
13102;SDS011;52970;46.752;17.108;2022-11-14T15:24:33;45.33;;;28.33;;
13102;SDS011;52970;46.752;17.108;2022-11-14T15:27:01;45.67;;;28.42;;
13102;SDS011;52970;46.752;17.108;2022-11-14T15:29:27;40.97;;;25.17;;
13102;SDS011;52970;46.752;17.108;2022-11-14T15:31:57;50.00;;;28.83;;
13102;SDS011;52970;46.752;17.108;2022-11-14T15:34:37;44.42;;;27.13;;
13102;SDS011;52970;46.752;17.108;2022-11-14T15:39:33;45.92;;;28.13;;
13102;SDS011;52970;46.752;17.108;2022-11-14T15:42:11;46.38;;;27.30;;
13102;SDS011;52970;46.752;17.108;2022-11-14T15:44:37;43.42;;;25.73;;
13102;SDS011;52970;46.752;17.108;2022-11-14T15:47:02;51.67;;;30.50;;
13102;SDS011;52970;46.752;17.108;2022-11-14T15:49:28;50.05;;;29.63;;
13102;SDS011;52970;46.752;17.108;2022-11-14T15:51:58;52.03;;;32.05;;
13102;SDS011;52970;46.752;17.108;2022-11-14T15:56:54;42.50;;;26.55;;
13102;SDS011;52970;46.752;17.108;2022-11-14T15:59:19;43.17;;;26.80;;